createdAt,value
2022-09-27T00:01:25.117Z,97039.47
2022-09-27T00:03:55.701Z,97046.63
2022-09-27T00:06:27.818Z,97039.41
2022-09-27T00:08:56.535Z,97032.13
2022-09-27T00:11:39.917Z,97052.03
2022-09-27T00:14:12.084Z,97041.56
2022-09-27T00:16:42.553Z,97042.38
2022-09-27T00:19:20.096Z,97039.84
2022-09-27T00:21:48.500Z,97055.41
2022-09-27T00:24:22.071Z,97046.84
2022-09-27T00:26:50.284Z,97056.66
2022-09-27T00:29:19.773Z,97065.50
2022-09-27T00:31:47.753Z,97068.25
2022-09-27T00:34:25.860Z,97060.66
2022-09-27T00:36:53.726Z,97082.50
2022-09-27T00:39:21.240Z,97083.78
2022-09-27T00:41:49.609Z,97085.47
2022-09-27T00:44:29.214Z,97100.06
2022-09-27T00:47:07.715Z,97086.31
2022-09-27T00:49:56.285Z,97073.69
2022-09-27T00:53:08.803Z,97084.31
2022-09-27T00:55:46.958Z,97078.44
2022-09-27T00:58:20.022Z,97096.16
2022-09-27T01:00:53.926Z,97081.56
2022-09-27T01:04:08.653Z,97100.03
2022-09-27T01:06:37.997Z,97085.53
2022-09-27T01:09:11.891Z,97087.88
2022-09-27T01:12:15.618Z,97081.59
2022-09-27T01:16:00.429Z,97093.81
2022-09-27T01:19:23.815Z,97094.19
2022-09-27T01:22:52.593Z,97117.84
2022-09-27T01:26:14.409Z,97117.00
2022-09-27T01:29:11.780Z,97114.66
2022-09-27T01:32:29.633Z,97128.47
2022-09-27T01:35:22.612Z,97126.91
2022-09-27T01:38:37.504Z,97133.19
2022-09-27T01:41:26.798Z,97132.03
2022-09-27T01:44:11.280Z,97128.47
2022-09-27T01:46:55.761Z,97138.28
2022-09-27T01:50:16.716Z,97136.72
2022-09-27T01:53:01.587Z,97129.66
2022-09-27T01:55:37.422Z,97142.28
2022-09-27T01:58:25.918Z,97141.09
2022-09-27T02:00:55.611Z,97139.09
2022-09-27T02:03:41.703Z,97157.63
2022-09-27T02:06:42.938Z,97164.72
2022-09-27T02:09:24.827Z,97150.16
2022-09-27T02:12:03.192Z,97168.25
2022-09-27T02:15:05.047Z,97165.09
2022-09-27T02:18:05.942Z,97163.13
2022-09-27T02:20:52.385Z,97161.16
2022-09-27T02:23:46.191Z,97168.22
2022-09-27T02:26:41.163Z,97160.75
2022-09-27T02:29:35.873Z,97157.59
2022-09-27T02:32:03.185Z,97164.25
2022-09-27T02:34:34.631Z,97157.19
2022-09-27T02:37:01.938Z,97167.03
2022-09-27T02:39:29.509Z,97168.25
2022-09-27T02:41:58.488Z,97159.59
2022-09-27T02:44:28.383Z,97152.53
2022-09-27T02:47:58.449Z,97156.44
2022-09-27T02:51:18.326Z,97158.41
2022-09-27T02:54:31.136Z,97156.44
2022-09-27T02:58:18.428Z,97160.38
2022-09-27T03:01:17.929Z,97170.22
2022-09-27T03:04:23.436Z,97174.16
2022-09-27T03:06:54.222Z,97197.31
2022-09-27T03:09:28.214Z,97173.34
2022-09-27T03:11:57.505Z,97187.91
2022-09-27T03:14:24.844Z,97188.69
2022-09-27T03:16:52.174Z,97187.13
2022-09-27T03:19:20.305Z,97191.81
2022-09-27T03:21:47.580Z,97193.44
2022-09-27T03:24:14.924Z,97191.06
2022-09-27T03:26:42.260Z,97189.06
2022-09-27T03:29:09.608Z,97187.91
2022-09-27T03:31:37.342Z,97189.44
2022-09-27T03:34:04.610Z,97206.75
2022-09-27T03:36:31.877Z,97203.59
2022-09-27T03:38:59.137Z,97201.66
2022-09-27T03:41:26.435Z,97198.53
2022-09-27T03:43:56.644Z,97198.09
2022-09-27T03:46:24.062Z,97194.59
2022-09-27T03:48:51.470Z,97191.44
2022-09-27T03:51:19.112Z,97193.81
2022-09-27T03:53:46.817Z,97198.13
2022-09-27T03:56:14.335Z,97198.50
2022-09-27T03:58:41.753Z,97204.03
2022-09-27T04:01:09.624Z,97209.91
2022-09-27T04:03:37.017Z,97211.91
2022-09-27T04:06:05.506Z,97205.63
2022-09-27T04:08:32.804Z,97211.50
2022-09-27T04:11:00.231Z,97202.84
2022-09-27T04:13:30.538Z,97208.38
2022-09-27T04:15:57.828Z,97211.50
2022-09-27T04:18:26.809Z,97217.81
2022-09-27T04:20:54.063Z,97211.13
2022-09-27T04:23:21.484Z,97211.91
2022-09-27T04:25:49.691Z,97224.13
2022-09-27T04:28:17.047Z,97224.88
2022-09-27T04:30:46.752Z,97223.72
2022-09-27T04:33:14.527Z,97231.16
2022-09-27T04:36:02.425Z,97229.22
2022-09-27T04:38:29.735Z,97245.72
2022-09-27T04:40:57.438Z,97246.13
2022-09-27T04:43:24.765Z,97235.13
2022-09-27T04:45:52.086Z,97239.44
2022-09-27T04:48:19.400Z,97247.66
2022-09-27T04:50:46.848Z,97246.91
2022-09-27T04:53:15.901Z,97248.09
2022-09-27T04:55:47.478Z,97258.31
2022-09-27T04:58:14.779Z,97244.94
2022-09-27T05:00:45.494Z,97242.19
2022-09-27T05:03:12.753Z,97238.66
2022-09-27T05:05:40.016Z,97247.25
2022-09-27T05:08:07.924Z,97245.31
2022-09-27T05:10:35.180Z,97251.25
2022-09-27T05:13:02.457Z,97259.47
2022-09-27T05:15:31.538Z,97273.66
2022-09-27T05:17:59.089Z,97270.13
2022-09-27T05:20:26.738Z,97272.50
2022-09-27T05:22:54.134Z,97281.56
2022-09-27T05:25:21.679Z,97277.84
2022-09-27T05:27:51.808Z,97273.97
2022-09-27T05:30:19.371Z,97284.59
2022-09-27T05:32:50.188Z,97285.78
2022-09-27T05:35:18.922Z,97288.56
2022-09-27T05:38:01.124Z,97299.56
2022-09-27T05:40:44.921Z,97284.09
2022-09-27T05:43:12.421Z,97315.22
2022-09-27T05:45:39.854Z,97313.69
2022-09-27T05:48:07.183Z,97308.53
2022-09-27T05:50:34.485Z,97313.69
2022-09-27T05:53:03.401Z,97307.41
2022-09-27T05:55:30.740Z,97333.34
2022-09-27T05:58:06.985Z,97328.66
2022-09-27T06:00:35.813Z,97332.59
2022-09-27T06:03:09.092Z,97331.38
2022-09-27T06:05:40.038Z,97340.13
2022-09-27T06:08:13.181Z,97333.00
2022-09-27T06:10:44.357Z,97333.34
2022-09-27T06:13:16.532Z,97349.00
2022-09-27T06:15:47.268Z,97346.72
2022-09-27T06:18:18.072Z,97349.03
2022-09-27T06:20:45.924Z,97350.91
2022-09-27T06:23:18.699Z,97358.41
2022-09-27T06:25:47.407Z,97356.00
2022-09-27T06:28:16.638Z,97360.13
2022-09-27T06:30:48.917Z,97358.44
2022-09-27T06:33:20.176Z,97355.31
2022-09-27T06:35:49.367Z,97365.59
2022-09-27T06:38:18.630Z,97371.88
2022-09-27T06:40:47.045Z,97377.03
2022-09-27T06:43:20.798Z,97371.97
2022-09-27T06:45:48.662Z,97373.88
2022-09-27T06:48:17.586Z,97382.13
2022-09-27T06:50:49.082Z,97379.16
2022-09-27T06:53:17.796Z,97383.81
2022-09-27T06:55:45.412Z,97392.53
2022-09-27T06:58:31.757Z,97386.22
2022-09-27T07:00:59.198Z,97388.88
2022-09-27T07:03:35.374Z,97385.28
2022-09-27T07:06:08.199Z,97386.22
2022-09-27T07:08:35.878Z,97383.03
2022-09-27T07:11:07.623Z,97386.28
2022-09-27T07:13:40.316Z,97388.28
2022-09-27T07:16:17.017Z,97408.91
2022-09-27T07:18:45.231Z,97407.88
2022-09-27T07:21:12.648Z,97393.44
2022-09-27T07:23:40.097Z,97400.41
2022-09-27T07:26:08.482Z,97392.59
2022-09-27T07:28:36.823Z,97401.66
2022-09-27T07:31:05.157Z,97402.88
2022-09-27T07:33:34.219Z,97397.44
2022-09-27T07:36:08.389Z,97405.31
2022-09-27T07:38:36.340Z,97406.13
2022-09-27T07:41:14.769Z,97412.78
2022-09-27T07:43:45.270Z,97410.47
2022-09-27T07:46:13.670Z,97417.16
2022-09-27T07:48:41.252Z,97414.38
2022-09-27T07:51:12.383Z,97411.63
2022-09-27T07:53:40.661Z,97409.69
2022-09-27T07:56:08.053Z,97414.78
2022-09-27T07:58:35.339Z,97413.97
2022-09-27T08:01:03.073Z,97420.72
2022-09-27T08:03:31.648Z,97419.16
2022-09-27T08:06:06.851Z,97420.75
2022-09-27T08:08:34.153Z,97413.63
2022-09-27T08:11:02.201Z,97415.59
2022-09-27T08:13:29.571Z,97405.34
2022-09-27T08:16:02.610Z,97417.94
2022-09-27T08:18:30.861Z,97415.22
2022-09-27T08:21:00.432Z,97414.84
2022-09-27T08:23:28.738Z,97423.47
2022-09-27T08:26:00.045Z,97414.81
2022-09-27T08:28:28.575Z,97413.25
2022-09-27T08:30:59.327Z,97423.88
2022-09-27T08:33:31.976Z,97417.19
2022-09-27T08:36:01.844Z,97421.91
2022-09-27T08:38:29.150Z,97425.84
2022-09-27T08:41:08.034Z,97425.84
2022-09-27T08:44:38.733Z,97422.28
2022-09-27T08:47:41.032Z,97426.63
2022-09-27T08:50:40.311Z,97423.47
2022-09-27T08:53:47.390Z,97438.84
2022-09-27T08:56:21.100Z,97447.88
2022-09-27T08:59:08.413Z,97464.31
2022-09-27T09:01:35.985Z,97457.94
2022-09-27T09:04:04.393Z,97456.16
2022-09-27T09:06:58.261Z,97448.75
2022-09-27T09:09:48.004Z,97470.28
2022-09-27T09:13:02.508Z,97470.78
2022-09-27T09:16:14.106Z,97490.25
2022-09-27T09:19:21.951Z,97478.44
2022-09-27T09:22:11.758Z,97500.38
2022-09-27T09:25:21.285Z,97495.56
2022-09-27T09:28:12.789Z,97498.94
2022-09-27T09:31:46.921Z,97503.03
2022-09-27T09:34:39.217Z,97490.41
2022-09-27T09:37:41.056Z,97503.00
2022-09-27T09:40:49.595Z,97492.06
2022-09-27T09:43:38.083Z,97498.38
2022-09-27T09:46:45.685Z,97485.69
2022-09-27T09:49:29.765Z,97507.59
2022-09-27T09:52:13.955Z,97503.50
2022-09-27T09:54:57.375Z,97495.03
2022-09-27T09:57:50.119Z,97489.31
2022-09-27T10:00:20.310Z,97465.50
2022-09-27T10:02:59.148Z,97476.59
2022-09-27T10:05:30.020Z,97465.19
2022-09-27T10:08:04.158Z,97476.31
2022-09-27T10:10:31.664Z,97467.75
2022-09-27T10:12:58.960Z,97447.16
2022-09-27T10:15:31.578Z,97444.50
2022-09-27T10:18:00.685Z,97453.44
2022-09-27T10:20:45.178Z,97444.03
2022-09-27T10:23:21.544Z,97447.16
2022-09-27T10:26:05.335Z,97440.16
2022-09-27T10:28:45.979Z,97445.25
2022-09-27T10:31:19.111Z,97443.34
2022-09-27T10:34:05.245Z,97439.41
2022-09-27T10:36:36.540Z,97430.06
2022-09-27T10:39:07.054Z,97436.09
2022-09-27T10:41:41.490Z,97436.53
2022-09-27T10:44:18.071Z,97431.06
2022-09-27T10:46:56.727Z,97435.84
2022-09-27T10:49:40.576Z,97428.81
2022-09-27T10:52:27.492Z,97418.19
2022-09-27T10:55:27.681Z,97412.28
2022-09-27T10:57:56.649Z,97418.25
2022-09-27T11:00:33.527Z,97415.09
2022-09-27T11:03:26.956Z,97424.25
2022-09-27T11:05:55.204Z,97417.53
2022-09-27T11:08:33.772Z,97417.88
2022-09-27T11:11:14.847Z,97421.84
2022-09-27T11:13:57.493Z,97428.06
2022-09-27T11:17:25.617Z,97418.72
2022-09-27T11:20:51.524Z,97425.44
2022-09-27T11:24:09.688Z,97426.53
2022-09-27T11:27:47.248Z,97426.56
2022-09-27T11:30:20.944Z,97419.16
2022-09-27T11:33:31.660Z,97425.06
2022-09-27T11:36:40.977Z,97419.94
2022-09-27T11:39:45.732Z,97429.78
2022-09-27T11:42:50.257Z,97423.50
2022-09-27T11:46:22.262Z,97421.91
2022-09-27T11:50:25.333Z,97417.56
2022-09-27T11:53:32.233Z,97418.34
2022-09-27T11:56:23.212Z,97417.94
2022-09-27T12:00:00.944Z,97402.16
2022-09-27T12:03:15.045Z,97388.38
2022-09-27T12:06:19.437Z,97385.22
2022-09-27T12:09:34.928Z,97385.59
2022-09-27T12:12:36.220Z,97375.00
2022-09-27T12:15:18.382Z,97386.44
2022-09-27T12:17:55.239Z,97383.25
2022-09-27T12:20:36.036Z,97383.63
2022-09-27T12:23:17.239Z,97380.78
2022-09-27T12:25:47.168Z,97382.38
2022-09-27T12:29:02.513Z,97367.59
2022-09-27T12:32:19.263Z,97375.13
2022-09-27T12:35:25.460Z,97367.31
2022-09-27T12:38:37.587Z,97364.69
2022-09-27T12:41:10.948Z,97356.84
2022-09-27T12:43:44.816Z,97353.78
2022-09-27T12:46:49.708Z,97367.38
2022-09-27T12:50:13.021Z,97370.59
2022-09-27T12:52:54.406Z,97359.53
2022-09-27T12:55:49.892Z,97360.28
2022-09-27T12:58:52.132Z,97358.53
2022-09-27T13:01:55.266Z,97368.47
2022-09-27T13:05:51.650Z,97364.09
2022-09-27T13:09:11.189Z,97373.69
2022-09-27T13:12:11.107Z,97375.25
2022-09-27T13:15:17.352Z,97385.88
2022-09-27T13:17:44.836Z,97387.09
2022-09-27T13:20:36.934Z,97386.31
2022-09-27T13:23:18.981Z,97393.13
2022-09-27T13:25:59.718Z,97384.88
2022-09-27T13:28:31.811Z,97402.56
2022-09-27T13:31:15.783Z,97414.41
2022-09-27T13:33:54.693Z,97396.56
2022-09-27T13:36:24.883Z,97397.31
2022-09-27T13:39:11.710Z,97410.28
2022-09-27T13:41:48.810Z,97410.66
2022-09-27T13:45:44.605Z,97404.31
2022-09-27T13:48:33.039Z,97410.28
2022-09-27T13:51:31.429Z,97405.88
2022-09-27T13:54:10.819Z,97407.44
2022-09-27T13:56:38.334Z,97396.53
2022-09-27T13:59:25.725Z,97399.50
2022-09-27T14:02:36.427Z,97394.50
2022-09-27T14:05:04.637Z,97408.31
2022-09-27T14:07:43.888Z,97398.09
2022-09-27T14:10:23.171Z,97389.06
2022-09-27T14:12:54.099Z,97389.03
2022-09-27T14:15:32.627Z,97392.59
2022-09-27T14:18:01.043Z,97397.38
2022-09-27T14:20:43.494Z,97397.72
2022-09-27T14:23:25.272Z,97403.63
2022-09-27T14:25:57.691Z,97399.31
2022-09-27T14:28:40.317Z,97395.69
2022-09-27T14:31:23.941Z,97395.00
2022-09-27T14:34:09.000Z,97403.75
2022-09-27T14:36:56.474Z,97404.16
2022-09-27T14:39:33.398Z,97404.16
2022-09-27T14:42:02.794Z,97395.88
2022-09-27T14:44:31.572Z,97389.97
2022-09-27T14:47:18.582Z,97397.47
2022-09-27T14:50:29.706Z,97402.19
2022-09-27T14:53:00.893Z,97418.75
2022-09-27T14:55:31.015Z,97420.28
2022-09-27T14:58:05.653Z,97421.88
2022-09-27T15:00:36.959Z,97438.44
2022-09-27T15:03:09.946Z,97431.69
2022-09-27T15:05:42.963Z,97414.38
2022-09-27T15:08:15.194Z,97433.19
2022-09-27T15:10:43.713Z,97437.41
2022-09-27T15:13:19.393Z,97432.22
2022-09-27T15:15:48.918Z,97432.22
2022-09-27T15:18:45.321Z,97401.63
2022-09-27T15:21:37.581Z,97404.47
2022-09-27T15:24:07.080Z,97406.88
2022-09-27T15:26:45.972Z,97410.78
2022-09-27T15:29:26.595Z,97427.28
2022-09-27T15:32:06.680Z,97434.03
2022-09-27T15:34:37.162Z,97430.13
2022-09-27T15:37:08.887Z,97425.03
2022-09-27T15:39:40.071Z,97421.88
2022-09-27T15:42:19.714Z,97417.97
2022-09-27T15:44:58.272Z,97417.94
2022-09-27T15:47:34.597Z,97416.34
2022-09-27T15:50:17.175Z,97420.28
2022-09-27T15:52:57.162Z,97416.66
2022-09-27T15:55:29.756Z,97423.38
2022-09-27T15:58:19.267Z,97421.09
2022-09-27T16:00:59.782Z,97416.00
2022-09-27T16:03:27.714Z,97408.09
2022-09-27T16:06:02.134Z,97408.09
2022-09-27T16:08:30.228Z,97421.88
2022-09-27T16:10:59.664Z,97421.09
2022-09-27T16:13:32.348Z,97431.75
2022-09-27T16:16:03.120Z,97425.84
2022-09-27T16:18:31.594Z,97432.56
2022-09-27T16:21:01.908Z,97436.91
2022-09-27T16:23:29.189Z,97432.94
2022-09-27T16:25:57.753Z,97438.44
2022-09-27T16:28:27.037Z,97430.97
2022-09-27T16:30:54.432Z,97433.34
2022-09-27T16:33:22.627Z,97438.47
2022-09-27T16:35:50.234Z,97438.06
2022-09-27T16:38:17.791Z,97436.72
2022-09-27T16:40:45.163Z,97441.56
2022-09-27T16:43:13.096Z,97433.63
2022-09-27T16:45:40.361Z,97427.72
2022-09-27T16:48:07.623Z,97424.66
2022-09-27T16:50:53.482Z,97426.22
2022-09-27T16:53:20.767Z,97414.78
2022-09-27T16:55:48.030Z,97427.38
2022-09-27T16:58:15.348Z,97421.13
2022-09-27T17:00:43.233Z,97422.28
2022-09-27T17:03:10.609Z,97419.50
2022-09-27T17:05:37.871Z,97413.63
2022-09-27T17:08:05.432Z,97409.28
2022-09-27T17:10:32.793Z,97412.44
2022-09-27T17:13:01.520Z,97402.19
2022-09-27T17:15:29.577Z,97413.63
2022-09-27T17:17:56.923Z,97416.38
2022-09-27T17:20:24.188Z,97409.31
2022-09-27T17:22:51.485Z,97410.88
2022-09-27T17:25:18.745Z,97419.94
2022-09-27T17:27:46.060Z,97414.78
2022-09-27T17:30:15.411Z,97414.03
2022-09-27T17:32:42.668Z,97406.13
2022-09-27T17:35:09.985Z,97411.25
2022-09-27T17:37:37.304Z,97404.56
2022-09-27T17:40:06.404Z,97406.53
2022-09-27T17:42:34.887Z,97400.63
2022-09-27T17:45:02.159Z,97399.06
2022-09-27T17:47:49.466Z,97392.34
2022-09-27T17:50:26.333Z,97398.63
2022-09-27T17:52:56.847Z,97391.97
2022-09-27T17:55:25.159Z,97394.28
2022-09-27T17:57:52.474Z,97408.13
2022-09-27T18:00:21.087Z,97407.31
2022-09-27T18:02:48.624Z,97397.47
2022-09-27T18:05:19.128Z,97404.16
2022-09-27T18:07:46.385Z,97410.06
2022-09-27T18:10:13.656Z,97416.38
2022-09-27T18:12:43.472Z,97415.59
2022-09-27T18:15:10.916Z,97411.25
2022-09-27T18:17:38.205Z,97410.06
2022-09-27T18:20:06.800Z,97416.28
2022-09-27T18:22:34.097Z,97411.22
2022-09-27T18:25:01.381Z,97426.56
2022-09-27T18:27:28.845Z,97404.81
2022-09-27T18:29:56.108Z,97421.00
2022-09-27T18:32:24.427Z,97422.25
2022-09-27T18:34:52.498Z,97420.19
2022-09-27T18:37:20.135Z,97427.69
2022-09-27T18:39:47.419Z,97426.53
2022-09-27T18:42:14.684Z,97425.34
2022-09-27T18:44:41.935Z,97418.59
2022-09-27T18:47:09.241Z,97415.03
2022-09-27T18:49:36.551Z,97420.94
2022-09-27T18:52:03.853Z,97421.72
2022-09-27T18:54:31.120Z,97416.97
2022-09-27T18:56:59.221Z,97418.53
2022-09-27T18:59:26.518Z,97428.88
2022-09-27T19:01:53.906Z,97425.66
2022-09-27T19:04:24.757Z,97420.25
2022-09-27T19:06:55.033Z,97420.19
2022-09-27T19:09:22.702Z,97425.34
2022-09-27T19:11:51.025Z,97423.47
2022-09-27T19:14:22.470Z,97423.41
2022-09-27T19:16:51.581Z,97423.44
2022-09-27T19:19:20.557Z,97416.75
2022-09-27T19:21:48.920Z,97417.94
2022-09-27T19:24:18.361Z,97428.56
2022-09-27T19:26:45.977Z,97426.22
2022-09-27T19:29:14.711Z,97429.78
2022-09-27T19:31:42.749Z,97429.75
2022-09-27T19:34:11.873Z,97428.16
2022-09-27T19:36:39.175Z,97419.50
2022-09-27T19:39:06.562Z,97430.94
2022-09-27T19:41:33.849Z,97424.94
2022-09-27T19:44:01.812Z,97412.72
2022-09-27T19:46:29.199Z,97422.94
2022-09-27T19:48:56.980Z,97422.94
2022-09-27T19:51:27.599Z,97416.19
2022-09-27T19:53:55.528Z,97423.25
2022-09-27T19:56:24.355Z,97415.44
2022-09-27T19:58:52.284Z,97425.03
2022-09-27T20:01:26.061Z,97424.13
2022-09-27T20:03:59.784Z,97429.66
2022-09-27T20:06:27.061Z,97415.47
2022-09-27T20:08:55.679Z,97409.16
2022-09-27T20:11:24.136Z,97414.25
2022-09-27T20:13:53.586Z,97407.63
2022-09-27T20:16:25.482Z,97405.66
2022-09-27T20:19:00.437Z,97416.28
2022-09-27T20:21:32.702Z,97397.75
2022-09-27T20:24:02.975Z,97414.31
2022-09-27T20:26:32.431Z,97400.88
2022-09-27T20:29:02.253Z,97396.09
2022-09-27T20:31:38.013Z,97394.88
2022-09-27T20:34:14.398Z,97392.56
2022-09-27T20:36:45.169Z,97394.91
2022-09-27T20:39:15.803Z,97392.53
2022-09-27T20:41:47.113Z,97376.03
2022-09-27T20:44:20.229Z,97372.53
2022-09-27T20:46:48.620Z,97369.81
2022-09-27T20:49:19.898Z,97380.06
2022-09-27T20:51:48.703Z,97386.34
2022-09-27T20:54:16.081Z,97383.53
2022-09-27T20:56:48.135Z,97382.69
2022-09-27T20:59:23.401Z,97386.28
2022-09-27T21:01:52.570Z,97387.53
2022-09-27T21:04:22.115Z,97365.44
2022-09-27T21:06:49.548Z,97366.34
2022-09-27T21:09:19.403Z,97356.41
2022-09-27T21:11:51.922Z,97345.78
2022-09-27T21:14:20.470Z,97343.06
2022-09-27T21:16:47.860Z,97337.53
2022-09-27T21:19:15.184Z,97341.03
2022-09-27T21:21:42.570Z,97325.31
2022-09-27T21:24:10.031Z,97325.31
2022-09-27T21:26:37.305Z,97327.25
2022-09-27T21:29:11.188Z,97328.06
2022-09-27T21:31:38.682Z,97333.66
2022-09-27T21:34:06.545Z,97321.81
2022-09-27T21:36:38.286Z,97319.06
2022-09-27T21:39:09.347Z,97329.28
2022-09-27T21:41:38.811Z,97318.25
2022-09-27T21:44:08.066Z,97311.91
2022-09-27T21:46:38.597Z,97298.09
2022-09-27T21:49:06.019Z,97310.69
2022-09-27T21:51:44.657Z,97304.81
2022-09-27T21:54:16.209Z,97301.25
2022-09-27T21:56:44.854Z,97298.53
2022-09-27T21:59:15.830Z,97296.53
2022-09-27T22:01:46.177Z,97284.75
2022-09-27T22:04:14.436Z,97290.97
2022-09-27T22:06:41.772Z,97278.38
2022-09-27T22:09:16.912Z,97273.25
2022-09-27T22:11:47.311Z,97263.09
2022-09-27T22:14:18.130Z,97256.28
2022-09-27T22:16:46.428Z,97254.28
2022-09-27T22:19:15.922Z,97251.59
2022-09-27T22:21:44.043Z,97244.88
2022-09-27T22:24:18.306Z,97232.56
2022-09-27T22:26:53.380Z,97237.84
2022-09-27T22:29:21.900Z,97223.94
2022-09-27T22:31:49.261Z,97215.72
2022-09-27T22:34:29.491Z,97219.28
2022-09-27T22:37:00.898Z,97208.59
2022-09-27T22:39:28.922Z,97212.19
2022-09-27T22:41:56.332Z,97215.38
2022-09-27T22:44:24.163Z,97222.81
2022-09-27T22:46:52.104Z,97221.19
2022-09-27T22:49:19.609Z,97202.28
2022-09-27T22:51:46.905Z,97204.34
2022-09-27T22:54:14.356Z,97197.19
2022-09-27T22:56:41.951Z,97204.25
2022-09-27T22:59:09.290Z,97211.31
2022-09-27T23:01:36.794Z,97201.91
2022-09-27T23:04:04.230Z,97204.25
2022-09-27T23:06:33.310Z,97190.41
2022-09-27T23:09:02.668Z,97187.63
2022-09-27T23:11:30.968Z,97188.72
2022-09-27T23:13:58.234Z,97190.72
2022-09-27T23:16:26.418Z,97187.53
2022-09-27T23:18:57.815Z,97182.41
2022-09-27T23:21:28.685Z,97171.41
2022-09-27T23:23:59.611Z,97164.56
2022-09-27T23:26:28.657Z,97162.59
2022-09-27T23:29:02.078Z,97156.72
2022-09-27T23:31:33.317Z,97166.97
2022-09-27T23:34:04.794Z,97154.53
2022-09-27T23:36:32.384Z,97162.22
2022-09-27T23:39:01.386Z,97139.53
2022-09-27T23:41:29.878Z,97141.16
2022-09-27T23:43:57.343Z,97125.34
2022-09-27T23:46:25.235Z,97115.06
2022-09-27T23:48:53.486Z,97114.59
2022-09-27T23:51:21.921Z,97115.47
2022-09-27T23:53:49.330Z,97110.28
2022-09-27T23:56:17.980Z,97112.50
2022-09-27T23:58:46.857Z,97109.25
